createdAt,value
2023-02-04T00:00:13.653Z,52.96
2023-02-04T00:02:40.704Z,53.06
2023-02-04T00:05:07.785Z,53.17
2023-02-04T00:07:34.370Z,53.03
2023-02-04T00:10:00.940Z,53.20
2023-02-04T00:12:27.747Z,52.96
2023-02-04T00:14:54.374Z,53.13
2023-02-04T00:17:21.001Z,53.05
2023-02-04T00:19:47.772Z,53.04
2023-02-04T00:22:14.585Z,53.15
2023-02-04T00:24:43.134Z,53.38
2023-02-04T00:27:09.842Z,53.39
2023-02-04T00:29:36.527Z,53.21
2023-02-04T00:32:03.294Z,53.07
2023-02-04T00:34:30.005Z,53.00
2023-02-04T00:36:56.583Z,52.65
2023-02-04T00:39:23.658Z,52.55
2023-02-04T00:41:50.386Z,52.41
2023-02-04T00:44:16.974Z,52.59
2023-02-04T00:46:43.657Z,52.46
2023-02-04T00:49:13.429Z,52.38
2023-02-04T00:51:40.278Z,52.45
2023-02-04T00:54:07.073Z,52.56
2023-02-04T00:56:34.167Z,52.47
2023-02-04T00:59:00.852Z,52.69
2023-02-04T01:01:27.432Z,52.49
2023-02-04T01:03:54.139Z,52.46
2023-02-04T01:06:20.709Z,52.34
2023-02-04T01:08:47.342Z,52.09
2023-02-04T01:11:14.148Z,52.07
2023-02-04T01:13:40.708Z,52.05
2023-02-04T01:16:07.561Z,51.89
2023-02-04T01:18:34.272Z,52.15
2023-02-04T01:21:03.616Z,51.89
2023-02-04T01:23:30.272Z,51.76
2023-02-04T01:25:57.106Z,51.93
2023-02-04T01:28:23.738Z,51.95
2023-02-04T01:30:50.453Z,51.81
2023-02-04T01:33:17.702Z,52.10
2023-02-04T01:35:44.345Z,52.30
2023-02-04T01:38:11.161Z,52.47
2023-02-04T01:40:37.813Z,52.46
2023-02-04T01:43:04.508Z,52.47
2023-02-04T01:45:33.749Z,52.29
2023-02-04T01:48:00.598Z,52.36
2023-02-04T01:50:27.221Z,52.25
2023-02-04T01:52:53.835Z,52.18
2023-02-04T01:55:21.110Z,52.16
2023-02-04T01:57:47.737Z,52.55
2023-02-04T02:00:18.230Z,52.81
2023-02-04T02:02:48.832Z,53.25
2023-02-04T02:05:16.981Z,53.33
2023-02-04T02:07:43.600Z,53.27
2023-02-04T02:10:10.967Z,53.71
2023-02-04T02:12:37.767Z,53.60
2023-02-04T02:15:04.514Z,53.56
2023-02-04T02:17:31.214Z,53.42
2023-02-04T02:19:57.873Z,53.36
2023-02-04T02:22:28.883Z,53.47
2023-02-04T02:24:55.475Z,53.41
2023-02-04T02:27:22.060Z,53.54
2023-02-04T02:29:48.838Z,53.44
2023-02-04T02:32:15.756Z,53.15
2023-02-04T02:34:42.338Z,53.24
2023-02-04T02:37:13.020Z,53.28
2023-02-04T02:39:39.929Z,53.45
2023-02-04T02:42:06.558Z,53.31
2023-02-04T02:44:33.245Z,53.41
2023-02-04T02:46:59.849Z,53.34
2023-02-04T02:49:26.469Z,53.32
2023-02-04T02:51:53.370Z,53.48
2023-02-04T02:54:24.381Z,53.48
2023-02-04T02:56:51.215Z,53.39
2023-02-04T02:59:17.921Z,53.31
2023-02-04T03:01:44.889Z,53.31
2023-02-04T03:04:11.486Z,53.16
2023-02-04T03:06:38.328Z,53.22
2023-02-04T03:09:04.935Z,53.33
2023-02-04T03:11:32.803Z,53.47
2023-02-04T03:14:01.271Z,53.73
2023-02-04T03:16:28.604Z,53.76
2023-02-04T03:18:55.236Z,53.83
2023-02-04T03:21:22.051Z,53.97
2023-02-04T03:23:48.662Z,53.90
2023-02-04T03:26:15.198Z,53.64
2023-02-04T03:28:42.206Z,53.67
2023-02-04T03:31:09.059Z,53.45
2023-02-04T03:33:36.165Z,52.97
2023-02-04T03:36:02.908Z,53.10
2023-02-04T03:38:29.590Z,52.71
2023-02-04T03:40:56.247Z,52.83
2023-02-04T03:43:23.055Z,52.61
2023-02-04T03:45:49.679Z,52.38
2023-02-04T03:48:16.221Z,52.36
2023-02-04T03:50:42.963Z,52.44
2023-02-04T03:53:09.771Z,52.36
2023-02-04T03:55:36.422Z,52.39
2023-02-04T03:58:03.520Z,52.33
2023-02-04T04:00:30.519Z,52.19
2023-02-04T04:02:57.723Z,52.08
2023-02-04T04:05:24.627Z,51.95
2023-02-04T04:07:51.313Z,51.87
2023-02-04T04:10:17.908Z,51.94
2023-02-04T04:12:44.645Z,51.94
2023-02-04T04:15:11.289Z,51.97
2023-02-04T04:17:37.834Z,51.84
2023-02-04T04:20:04.928Z,52.08
2023-02-04T04:22:31.555Z,51.95
2023-02-04T04:24:58.123Z,52.18
2023-02-04T04:27:24.909Z,52.13
2023-02-04T04:29:51.592Z,51.94
2023-02-04T04:32:18.235Z,51.93
2023-02-04T04:34:45.006Z,51.98
2023-02-04T04:37:11.623Z,51.92
2023-02-04T04:39:38.269Z,51.81
2023-02-04T04:42:05.048Z,51.75
2023-02-04T04:44:31.650Z,51.76
2023-02-04T04:46:58.324Z,51.67
2023-02-04T04:49:24.999Z,51.66
2023-02-04T04:51:51.542Z,51.57
2023-02-04T04:54:18.299Z,51.63
2023-02-04T04:56:45.026Z,51.54
2023-02-04T04:59:11.582Z,51.53
2023-02-04T05:01:38.144Z,51.41
2023-02-04T05:04:04.845Z,51.29
2023-02-04T05:06:31.718Z,51.56
2023-02-04T05:08:58.342Z,51.32
2023-02-04T05:11:25.270Z,51.35
2023-02-04T05:13:51.911Z,51.25
2023-02-04T05:16:18.627Z,51.07
2023-02-04T05:18:45.408Z,50.86
2023-02-04T05:21:12.033Z,50.90
2023-02-04T05:23:38.681Z,50.64
2023-02-04T05:26:05.491Z,50.68
2023-02-04T05:28:32.136Z,50.70
2023-02-04T05:30:58.800Z,50.54
2023-02-04T05:33:25.503Z,50.44
2023-02-04T05:35:52.120Z,50.44
2023-02-04T05:38:18.691Z,50.42
2023-02-04T05:40:45.418Z,50.58
2023-02-04T05:43:12.318Z,50.46
2023-02-04T05:45:39.069Z,50.21
2023-02-04T05:48:05.853Z,50.45
2023-02-04T05:50:32.715Z,50.39
2023-02-04T05:52:59.470Z,50.31
2023-02-04T05:55:26.218Z,50.33
2023-02-04T05:57:52.829Z,50.36
2023-02-04T06:00:19.639Z,50.00
2023-02-04T06:02:46.381Z,50.19
2023-02-04T06:05:12.941Z,49.97
2023-02-04T06:07:39.574Z,49.90
2023-02-04T06:10:06.349Z,50.04
2023-02-04T06:12:32.972Z,50.08
2023-02-04T06:14:59.516Z,49.94
2023-02-04T06:17:26.169Z,50.07
2023-02-04T06:19:52.797Z,49.77
2023-02-04T06:22:19.483Z,49.96
2023-02-04T06:24:47.472Z,49.93
2023-02-04T06:27:14.211Z,50.01
2023-02-04T06:29:40.789Z,50.00
2023-02-04T06:32:07.480Z,49.88
2023-02-04T06:34:34.138Z,49.84
2023-02-04T06:37:00.887Z,49.70
2023-02-04T06:39:27.747Z,49.62
2023-02-04T06:41:54.308Z,49.71
2023-02-04T06:44:20.861Z,49.68
2023-02-04T06:46:47.506Z,49.74
2023-02-04T06:49:14.162Z,49.65
2023-02-04T06:51:40.730Z,49.56
2023-02-04T06:54:07.420Z,49.53
2023-02-04T06:56:34.074Z,49.42
2023-02-04T06:59:03.023Z,49.62
2023-02-04T07:01:30.067Z,49.46
2023-02-04T07:03:56.764Z,49.21
2023-02-04T07:06:23.308Z,49.09
2023-02-04T07:08:50.505Z,49.21
2023-02-04T07:11:17.071Z,49.38
2023-02-04T07:13:43.689Z,49.22
2023-02-04T07:16:10.434Z,49.23
2023-02-04T07:18:37.064Z,49.24
2023-02-04T07:21:03.769Z,49.13
2023-02-04T07:23:30.550Z,49.19
2023-02-04T07:25:59.454Z,49.21
2023-02-04T07:28:26.366Z,49.17
2023-02-04T07:30:53.307Z,49.22
2023-02-04T07:33:20.012Z,49.51
2023-02-04T07:35:46.602Z,49.42
2023-02-04T07:38:13.330Z,49.48
2023-02-04T07:40:39.881Z,49.26
2023-02-04T07:43:06.472Z,49.63
2023-02-04T07:45:33.239Z,49.30
2023-02-04T07:47:59.769Z,49.52
2023-02-04T07:50:26.301Z,49.45
2023-02-04T07:52:52.968Z,49.41
2023-02-04T07:55:19.561Z,49.33
2023-02-04T07:57:46.191Z,49.34
2023-02-04T08:00:14.490Z,49.10
2023-02-04T08:02:42.040Z,49.24
2023-02-04T08:05:09.076Z,49.14
2023-02-04T08:07:35.827Z,49.46
2023-02-04T08:10:03.141Z,49.81
2023-02-04T08:12:30.438Z,49.96
2023-02-04T08:14:57.066Z,50.27
2023-02-04T08:17:23.744Z,50.58
2023-02-04T08:19:50.371Z,50.50
2023-02-04T08:22:17.604Z,50.88
2023-02-04T08:24:44.239Z,50.99
2023-02-04T08:27:15.557Z,51.12
2023-02-04T08:29:42.752Z,51.02
2023-02-04T08:32:10.303Z,51.07
2023-02-04T08:34:37.171Z,51.25
2023-02-04T08:37:03.956Z,51.58
2023-02-04T08:39:30.779Z,51.92
2023-02-04T08:41:57.711Z,52.04
2023-02-04T08:44:24.718Z,52.35
2023-02-04T08:46:51.335Z,52.33
2023-02-04T08:49:17.944Z,52.36
2023-02-04T08:51:44.653Z,52.24
2023-02-04T08:54:11.206Z,52.20
2023-02-04T08:56:38.096Z,52.11
2023-02-04T08:59:04.837Z,51.73
2023-02-04T09:01:31.426Z,51.83
2023-02-04T09:03:57.965Z,51.92
2023-02-04T09:06:24.727Z,51.80
2023-02-04T09:08:51.321Z,51.54
2023-02-04T09:11:18.048Z,51.36
2023-02-04T09:13:44.816Z,51.38
2023-02-04T09:16:11.362Z,50.80
2023-02-04T09:18:38.119Z,50.65
2023-02-04T09:21:05.053Z,50.37
2023-02-04T09:23:31.844Z,50.04
2023-02-04T09:25:58.546Z,49.97
2023-02-04T09:28:25.237Z,49.49
2023-02-04T09:30:53.178Z,49.06
2023-02-04T09:33:19.800Z,48.68
2023-02-04T09:35:46.527Z,48.59
2023-02-04T09:38:13.100Z,48.42
2023-02-04T09:40:43.461Z,47.97
2023-02-04T09:43:12.538Z,47.61
2023-02-04T09:45:39.142Z,47.42
2023-02-04T09:48:05.967Z,46.72
2023-02-04T09:50:33.164Z,46.59
2023-02-04T09:53:06.780Z,45.63
2023-02-04T09:58:00.800Z,45.26
2023-02-04T10:00:28.333Z,45.34
2023-02-04T10:02:55.702Z,44.83
2023-02-04T10:05:25.297Z,44.33
2023-02-04T10:07:52.144Z,43.81
2023-02-04T10:10:22.504Z,43.31
2023-02-04T10:12:49.746Z,42.95
2023-02-04T10:15:16.683Z,42.83
2023-02-04T10:17:45.661Z,41.79
2023-02-04T10:20:13.772Z,42.04
2023-02-04T10:22:40.362Z,41.64
2023-02-04T10:25:14.499Z,41.32
2023-02-04T10:27:48.246Z,41.42
2023-02-04T10:30:25.265Z,40.92
2023-02-04T10:32:52.079Z,40.33
2023-02-04T10:35:19.046Z,40.21
2023-02-04T10:37:45.889Z,38.66
2023-02-04T10:40:27.894Z,39.02
2023-02-04T10:42:55.626Z,39.13
2023-02-04T10:45:23.071Z,39.38
2023-02-04T10:47:53.080Z,38.79
2023-02-04T10:50:20.334Z,38.20
2023-02-04T10:52:47.701Z,38.16
2023-02-04T10:55:14.972Z,37.70
2023-02-04T10:57:41.773Z,37.14
2023-02-04T11:00:15.449Z,36.95
2023-02-04T11:02:43.102Z,36.60
2023-02-04T11:05:14.898Z,36.47
2023-02-04T11:07:41.564Z,36.08
2023-02-04T11:10:11.625Z,36.05
2023-02-04T11:13:04.676Z,35.52
2023-02-04T11:15:37.582Z,35.39
2023-02-04T11:18:04.889Z,35.31
2023-02-04T11:20:32.804Z,35.02
2023-02-04T11:23:14.018Z,34.73
2023-02-04T11:25:44.075Z,34.61
2023-02-04T11:28:24.399Z,34.30
2023-02-04T11:31:01.970Z,34.25
2023-02-04T11:33:37.310Z,33.85
2023-02-04T11:36:04.827Z,33.97
2023-02-04T11:38:31.578Z,33.72
2023-02-04T11:40:58.266Z,33.46
2023-02-04T11:43:24.966Z,33.37
2023-02-04T11:46:00.564Z,33.00
2023-02-04T11:48:27.364Z,32.89
2023-02-04T11:50:57.617Z,32.40
2023-02-04T11:53:25.012Z,32.45
2023-02-04T11:55:51.615Z,32.65
2023-02-04T11:58:18.605Z,32.48
2023-02-04T12:00:45.389Z,32.29
2023-02-04T12:03:31.331Z,32.25
2023-02-04T12:05:58.669Z,32.19
2023-02-04T12:08:26.374Z,31.40
2023-02-04T12:10:59.517Z,31.64
2023-02-04T12:13:26.432Z,30.91
2023-02-04T12:16:03.091Z,30.72
2023-02-04T12:18:29.916Z,30.44
2023-02-04T12:20:56.723Z,29.91
2023-02-04T12:23:23.733Z,30.00
2023-02-04T12:25:50.466Z,29.85
2023-02-04T12:28:17.281Z,29.58
2023-02-04T12:30:43.982Z,29.00
2023-02-04T12:33:10.658Z,28.72
2023-02-04T12:35:37.612Z,28.40
2023-02-04T12:38:04.239Z,28.40
2023-02-04T12:40:31.038Z,28.27
2023-02-04T12:42:57.744Z,28.55
2023-02-04T12:45:24.348Z,27.81
2023-02-04T12:47:50.978Z,28.19
2023-02-04T12:50:23.679Z,28.28
2023-02-04T12:52:51.011Z,27.78
2023-02-04T12:55:17.705Z,27.57
2023-02-04T12:57:44.449Z,27.38
2023-02-04T13:00:13.172Z,27.01
2023-02-04T13:02:40.325Z,27.04
2023-02-04T13:05:07.332Z,26.60
2023-02-04T13:07:34.087Z,26.75
2023-02-04T13:10:00.937Z,26.44
2023-02-04T13:12:27.582Z,26.48
2023-02-04T13:14:54.145Z,26.51
2023-02-04T13:17:20.801Z,26.15
2023-02-04T13:19:47.443Z,26.12
2023-02-04T13:22:14.032Z,26.28
2023-02-04T13:24:40.672Z,26.23
2023-02-04T13:27:07.370Z,26.10
2023-02-04T13:29:34.030Z,26.07
2023-02-04T13:32:00.676Z,26.11
2023-02-04T13:34:27.489Z,25.72
2023-02-04T13:36:54.155Z,25.51
2023-02-04T13:39:20.746Z,25.06
2023-02-04T13:41:47.593Z,24.83
2023-02-04T13:44:14.168Z,25.48
2023-02-04T13:46:40.721Z,25.33
2023-02-04T13:49:07.573Z,25.78
2023-02-04T13:51:34.195Z,26.14
2023-02-04T13:54:00.803Z,26.29
2023-02-04T13:56:28.468Z,26.37
2023-02-04T13:58:55.010Z,26.38
2023-02-04T14:01:21.677Z,26.69
2023-02-04T14:03:48.409Z,27.27
2023-02-04T14:06:15.288Z,27.53
2023-02-04T14:08:42.675Z,27.51
2023-02-04T14:11:09.960Z,27.77
2023-02-04T14:13:36.578Z,28.05
2023-02-04T14:16:03.185Z,28.46
2023-02-04T14:18:30.260Z,28.64
2023-02-04T14:20:56.930Z,28.97
2023-02-04T14:23:24.178Z,29.27
2023-02-04T14:25:50.862Z,29.27
2023-02-04T14:28:17.429Z,29.64
2023-02-04T14:30:44.061Z,29.77
2023-02-04T14:33:10.848Z,30.14
2023-02-04T14:35:37.829Z,30.00
2023-02-04T14:38:04.371Z,30.58
2023-02-04T14:40:31.378Z,30.52
2023-02-04T14:42:58.253Z,30.82
2023-02-04T14:45:24.840Z,31.17
2023-02-04T14:47:53.202Z,31.30
2023-02-04T14:50:20.026Z,32.01
2023-02-04T14:52:46.640Z,32.04
2023-02-04T14:55:14.655Z,32.34
2023-02-04T14:57:41.343Z,32.71
2023-02-04T15:00:08.422Z,32.89
2023-02-04T15:02:35.163Z,33.41
2023-02-04T15:05:02.047Z,33.22
2023-02-04T15:07:28.692Z,33.42
2023-02-04T15:09:55.471Z,33.26
2023-02-04T15:12:22.699Z,33.22
2023-02-04T15:14:49.260Z,33.27
2023-02-04T15:17:15.953Z,33.48
2023-02-04T15:19:42.556Z,33.47
2023-02-04T15:22:09.214Z,33.40
2023-02-04T15:24:35.906Z,33.32
2023-02-04T15:27:02.681Z,33.21
2023-02-04T15:29:29.383Z,33.29
2023-02-04T15:31:56.407Z,33.39
2023-02-04T15:34:22.971Z,33.35
2023-02-04T15:36:49.560Z,33.37
2023-02-04T15:39:16.257Z,33.23
2023-02-04T15:41:42.841Z,33.12
2023-02-04T15:44:09.473Z,32.90
2023-02-04T15:46:36.769Z,33.14
2023-02-04T15:49:03.660Z,33.21
2023-02-04T15:51:30.211Z,32.97
2023-02-04T15:53:56.925Z,33.20
2023-02-04T15:56:23.519Z,33.16
2023-02-04T15:58:50.118Z,33.41
2023-02-04T16:01:16.930Z,33.40
2023-02-04T16:03:47.408Z,33.55
2023-02-04T16:06:14.259Z,33.41
2023-02-04T16:08:42.883Z,33.52
2023-02-04T16:11:10.970Z,33.95
2023-02-04T16:13:39.106Z,33.88
2023-02-04T16:16:06.532Z,34.02
2023-02-04T16:18:33.204Z,34.50
2023-02-04T16:20:59.792Z,34.45
2023-02-04T16:23:27.912Z,34.58
2023-02-04T16:25:54.472Z,34.55
2023-02-04T16:28:21.234Z,34.84
2023-02-04T16:30:47.988Z,34.96
2023-02-04T16:33:16.973Z,34.76
2023-02-04T16:35:57.502Z,35.00
2023-02-04T16:38:24.234Z,35.60
2023-02-04T16:40:50.897Z,35.66
2023-02-04T16:43:17.649Z,35.50
2023-02-04T16:45:44.195Z,35.75
2023-02-04T16:48:10.911Z,35.73
2023-02-04T16:50:40.163Z,36.16
2023-02-04T16:53:06.815Z,36.16
2023-02-04T16:55:33.742Z,36.18
2023-02-04T16:58:00.672Z,36.34
2023-02-04T17:00:30.191Z,36.58
2023-02-04T17:02:57.061Z,36.66
2023-02-04T17:05:23.805Z,37.07
2023-02-04T17:07:52.769Z,37.23
2023-02-04T17:10:39.375Z,37.11
2023-02-04T17:13:05.979Z,37.41
2023-02-04T17:15:32.878Z,37.32
2023-02-04T17:17:59.715Z,37.28
2023-02-04T17:20:26.346Z,37.80
2023-02-04T17:22:52.916Z,37.66
2023-02-04T17:25:19.543Z,37.90
2023-02-04T17:27:46.126Z,37.92
2023-02-04T17:30:15.497Z,37.89
2023-02-04T17:35:22.527Z,38.16
2023-02-04T17:37:49.342Z,38.28
2023-02-04T17:40:15.994Z,38.24
2023-02-04T17:42:42.609Z,38.57
2023-02-04T17:45:10.817Z,38.61
2023-02-04T17:47:40.451Z,38.88
2023-02-04T17:50:12.859Z,38.72
2023-02-04T17:52:39.590Z,38.90
2023-02-04T17:55:23.843Z,38.82
2023-02-04T17:57:51.135Z,38.93
2023-02-04T18:00:18.742Z,39.07
2023-02-04T18:02:45.706Z,39.09
2023-02-04T18:05:19.228Z,39.38
2023-02-04T18:08:06.086Z,39.54
2023-02-04T18:10:38.455Z,39.62
2023-02-04T18:13:25.331Z,39.49
2023-02-04T18:15:52.847Z,39.61
2023-02-04T18:18:23.744Z,39.83
2023-02-04T18:21:10.818Z,39.84
2023-02-04T18:23:37.862Z,39.93
2023-02-04T18:26:11.845Z,39.82
2023-02-04T18:28:40.450Z,39.83
2023-02-04T18:31:07.183Z,40.00
2023-02-04T18:33:33.800Z,39.83
2023-02-04T18:36:02.022Z,40.07
2023-02-04T18:38:29.430Z,40.26
2023-02-04T18:40:57.805Z,40.55
2023-02-04T18:43:25.513Z,40.66
2023-02-04T18:45:52.361Z,40.77
2023-02-04T18:48:22.791Z,40.93
2023-02-04T18:50:53.668Z,40.78
2023-02-04T18:53:20.217Z,41.04
2023-02-04T18:55:50.651Z,41.09
2023-02-04T18:58:17.357Z,41.05
2023-02-04T19:00:45.582Z,40.93
2023-02-04T19:03:15.782Z,41.02
2023-02-04T19:05:43.461Z,41.07
2023-02-04T19:08:16.812Z,41.09
2023-02-04T19:10:43.481Z,41.18
2023-02-04T19:13:20.600Z,41.45
2023-02-04T19:15:59.185Z,41.65
2023-02-04T19:18:27.617Z,41.70
2023-02-04T19:20:54.429Z,41.69
2023-02-04T19:23:22.223Z,41.84
2023-02-04T19:25:49.809Z,41.94
2023-02-04T19:28:24.874Z,42.02
2023-02-04T19:30:54.122Z,42.19
2023-02-04T19:33:25.666Z,42.29
2023-02-04T19:35:52.515Z,42.27
2023-02-04T19:38:22.630Z,42.28
2023-02-04T19:40:50.442Z,42.42
2023-02-04T19:43:21.572Z,42.25
2023-02-04T19:45:50.016Z,42.10
2023-02-04T19:48:26.701Z,42.29
2023-02-04T19:50:54.068Z,42.36
2023-02-04T19:53:25.516Z,42.39
2023-02-04T19:55:53.465Z,42.52
2023-02-04T19:58:21.994Z,42.63
2023-02-04T20:00:58.985Z,42.68
2023-02-04T20:03:28.888Z,42.88
2023-02-04T20:05:57.450Z,42.71
2023-02-04T20:08:33.320Z,42.88
2023-02-04T20:11:00.002Z,42.72
2023-02-04T20:13:26.609Z,42.84
2023-02-04T20:15:53.321Z,42.93
2023-02-04T20:18:23.087Z,42.89
2023-02-04T20:20:53.360Z,42.88
2023-02-04T20:23:29.809Z,42.90
2023-02-04T20:25:57.345Z,43.04
2023-02-04T20:28:30.710Z,43.23
2023-02-04T20:31:00.347Z,43.35
2023-02-04T20:33:30.888Z,43.51
2023-02-04T20:36:23.355Z,44.01
2023-02-04T20:38:50.053Z,45.16
2023-02-04T20:41:18.286Z,45.45
2023-02-04T20:43:45.039Z,45.81
2023-02-04T20:46:23.853Z,46.06
2023-02-04T20:48:50.598Z,46.49
2023-02-04T20:51:23.951Z,47.12
2023-02-04T20:53:51.132Z,47.95
2023-02-04T20:56:27.361Z,48.77
2023-02-04T20:58:55.006Z,49.31
2023-02-04T21:01:28.085Z,49.62
2023-02-04T21:03:55.057Z,49.88
2023-02-04T21:06:25.470Z,50.00
2023-02-04T21:08:52.361Z,49.86
2023-02-04T21:11:20.393Z,50.20
2023-02-04T21:13:47.658Z,50.37
2023-02-04T21:16:14.238Z,50.40
2023-02-04T21:18:41.028Z,50.38
2023-02-04T21:21:08.122Z,50.33
2023-02-04T21:23:42.380Z,50.06
2023-02-04T21:26:09.066Z,49.69
2023-02-04T21:28:37.794Z,49.47
2023-02-04T21:31:04.928Z,49.13
2023-02-04T21:33:33.731Z,48.86
2023-02-04T21:36:03.429Z,48.57
2023-02-04T21:38:30.089Z,48.36
2023-02-04T21:40:56.954Z,48.01
2023-02-04T21:43:23.580Z,47.99
2023-02-04T21:45:50.202Z,47.83
2023-02-04T21:48:18.225Z,47.72
2023-02-04T21:50:46.941Z,47.51
2023-02-04T21:53:13.827Z,47.47
2023-02-04T21:55:40.638Z,47.34
2023-02-04T21:58:07.635Z,47.27
2023-02-04T22:00:36.384Z,47.33
2023-02-04T22:03:03.144Z,47.36
2023-02-04T22:05:29.774Z,47.55
2023-02-04T22:07:57.963Z,47.89
2023-02-04T22:10:26.309Z,47.94
2023-02-04T22:12:54.510Z,48.05
2023-02-04T22:15:21.806Z,48.10
2023-02-04T22:17:48.853Z,48.22
2023-02-04T22:20:16.904Z,48.50
2023-02-04T22:22:44.315Z,48.83
2023-02-04T22:25:11.538Z,48.70
2023-02-04T22:27:38.168Z,48.91
2023-02-04T22:30:05.466Z,49.07
2023-02-04T22:32:32.137Z,49.16
2023-02-04T22:34:58.726Z,49.33
2023-02-04T22:37:33.013Z,49.35
2023-02-04T22:39:59.718Z,49.45
2023-02-04T22:42:26.335Z,49.85
2023-02-04T22:44:52.877Z,50.56
2023-02-04T22:47:21.563Z,50.94
2023-02-04T22:49:52.485Z,51.24
2023-02-04T22:52:19.079Z,51.10
2023-02-04T22:54:45.821Z,51.19
2023-02-04T22:57:15.079Z,51.13
2023-02-04T22:59:41.938Z,51.39
2023-02-04T23:02:08.748Z,51.42
2023-02-04T23:04:35.545Z,51.42
2023-02-04T23:07:04.854Z,51.52
2023-02-04T23:09:32.229Z,51.23
2023-02-04T23:11:59.001Z,51.07
2023-02-04T23:14:25.604Z,50.76
2023-02-04T23:16:53.011Z,50.55
2023-02-04T23:19:19.632Z,50.53
2023-02-04T23:21:46.419Z,50.48
2023-02-04T23:24:13.039Z,50.63
2023-02-04T23:26:39.616Z,50.80
2023-02-04T23:29:09.899Z,51.11
2023-02-04T23:31:36.594Z,51.16
2023-02-04T23:34:03.181Z,51.26
2023-02-04T23:36:29.937Z,51.24
2023-02-04T23:38:56.622Z,51.11
2023-02-04T23:41:23.493Z,51.21
2023-02-04T23:43:50.029Z,50.72
2023-02-04T23:46:16.713Z,50.59
2023-02-04T23:48:43.377Z,50.57
2023-02-04T23:51:10.051Z,50.23
2023-02-04T23:53:45.423Z,50.23
2023-02-04T23:56:11.985Z,50.35
2023-02-04T23:58:41.711Z,50.20
